sensor_id;sensor_type;location;lat;lon;timestamp;P1;durP1;ratioP1;P2;durP2;ratioP2
19776;SDS011;10047;42.490;26.012;2024-02-21T00:01:46;43.97;;;28.67;;
19776;SDS011;10047;42.490;26.012;2024-02-21T00:04:12;43.63;;;28.80;;
19776;SDS011;10047;42.490;26.012;2024-02-21T00:06:37;41.60;;;27.70;;
19776;SDS011;10047;42.490;26.012;2024-02-21T00:09:02;41.90;;;28.30;;
19776;SDS011;10047;42.490;26.012;2024-02-21T00:11:28;44.67;;;29.17;;
19776;SDS011;10047;42.490;26.012;2024-02-21T00:13:53;42.40;;;28.73;;
19776;SDS011;10047;42.490;26.012;2024-02-21T00:16:19;41.65;;;27.60;;
19776;SDS011;10047;42.490;26.012;2024-02-21T00:18:44;44.58;;;29.25;;
19776;SDS011;10047;42.490;26.012;2024-02-21T00:21:10;42.30;;;28.67;;
19776;SDS011;10047;42.490;26.012;2024-02-21T00:23:40;42.30;;;28.38;;
19776;SDS011;10047;42.490;26.012;2024-02-21T00:26:05;43.08;;;27.98;;
19776;SDS011;10047;42.490;26.012;2024-02-21T00:28:31;45.38;;;29.70;;
19776;SDS011;10047;42.490;26.012;2024-02-21T00:30:56;44.97;;;28.92;;
19776;SDS011;10047;42.490;26.012;2024-02-21T00:33:22;42.78;;;27.77;;
19776;SDS011;10047;42.490;26.012;2024-02-21T00:35:47;41.85;;;27.98;;
19776;SDS011;10047;42.490;26.012;2024-02-21T00:38:12;45.33;;;28.48;;
19776;SDS011;10047;42.490;26.012;2024-02-21T00:40:38;40.35;;;27.15;;
19776;SDS011;10047;42.490;26.012;2024-02-21T00:43:03;41.58;;;28.00;;
19776;SDS011;10047;42.490;26.012;2024-02-21T00:45:29;45.95;;;29.05;;
19776;SDS011;10047;42.490;26.012;2024-02-21T00:47:54;45.33;;;29.48;;
19776;SDS011;10047;42.490;26.012;2024-02-21T00:50:19;45.97;;;29.60;;
19776;SDS011;10047;42.490;26.012;2024-02-21T00:52:45;45.00;;;29.75;;
19776;SDS011;10047;42.490;26.012;2024-02-21T00:55:10;43.53;;;29.42;;
19776;SDS011;10047;42.490;26.012;2024-02-21T00:57:36;46.25;;;30.73;;
19776;SDS011;10047;42.490;26.012;2024-02-21T01:00:02;41.58;;;28.67;;
19776;SDS011;10047;42.490;26.012;2024-02-21T01:02:28;48.28;;;30.30;;
19776;SDS011;10047;42.490;26.012;2024-02-21T01:04:56;43.58;;;29.88;;
19776;SDS011;10047;42.490;26.012;2024-02-21T01:07:22;47.13;;;30.00;;
19776;SDS011;10047;42.490;26.012;2024-02-21T01:09:47;43.78;;;29.58;;
19776;SDS011;10047;42.490;26.012;2024-02-21T01:12:13;43.92;;;29.25;;
19776;SDS011;10047;42.490;26.012;2024-02-21T01:14:38;47.10;;;29.23;;
19776;SDS011;10047;42.490;26.012;2024-02-21T01:17:04;45.83;;;29.30;;
19776;SDS011;10047;42.490;26.012;2024-02-21T01:19:31;41.92;;;28.83;;
19776;SDS011;10047;42.490;26.012;2024-02-21T01:21:56;44.85;;;30.00;;
19776;SDS011;10047;42.490;26.012;2024-02-21T01:24:22;45.25;;;30.17;;
19776;SDS011;10047;42.490;26.012;2024-02-21T01:26:47;46.13;;;29.98;;
19776;SDS011;10047;42.490;26.012;2024-02-21T01:29:12;44.17;;;30.60;;
19776;SDS011;10047;42.490;26.012;2024-02-21T01:31:38;45.03;;;30.25;;
19776;SDS011;10047;42.490;26.012;2024-02-21T01:34:03;45.67;;;29.85;;
19776;SDS011;10047;42.490;26.012;2024-02-21T01:36:29;44.70;;;30.67;;
19776;SDS011;10047;42.490;26.012;2024-02-21T01:38:54;51.38;;;32.85;;
19776;SDS011;10047;42.490;26.012;2024-02-21T01:41:19;44.83;;;30.50;;
19776;SDS011;10047;42.490;26.012;2024-02-21T01:43:45;46.95;;;30.73;;
19776;SDS011;10047;42.490;26.012;2024-02-21T01:46:10;45.95;;;31.23;;
19776;SDS011;10047;42.490;26.012;2024-02-21T01:48:36;47.78;;;32.13;;
19776;SDS011;10047;42.490;26.012;2024-02-21T01:51:02;45.67;;;31.20;;
19776;SDS011;10047;42.490;26.012;2024-02-21T01:53:30;48.38;;;31.63;;
19776;SDS011;10047;42.490;26.012;2024-02-21T01:55:57;45.83;;;30.88;;
19776;SDS011;10047;42.490;26.012;2024-02-21T01:58:23;46.88;;;32.45;;
19776;SDS011;10047;42.490;26.012;2024-02-21T02:00:49;47.38;;;31.73;;
19776;SDS011;10047;42.490;26.012;2024-02-21T02:03:15;48.20;;;31.88;;
19776;SDS011;10047;42.490;26.012;2024-02-21T02:05:47;49.85;;;32.55;;
19776;SDS011;10047;42.490;26.012;2024-02-21T02:08:13;53.17;;;32.42;;
19776;SDS011;10047;42.490;26.012;2024-02-21T02:10:40;46.25;;;31.88;;
19776;SDS011;10047;42.490;26.012;2024-02-21T02:13:05;50.22;;;32.53;;
19776;SDS011;10047;42.490;26.012;2024-02-21T02:15:37;47.70;;;32.15;;
19776;SDS011;10047;42.490;26.012;2024-02-21T02:18:06;48.95;;;31.15;;
19776;SDS011;10047;42.490;26.012;2024-02-21T02:20:32;46.92;;;31.17;;
19776;SDS011;10047;42.490;26.012;2024-02-21T02:23:03;45.08;;;30.95;;
19776;SDS011;10047;42.490;26.012;2024-02-21T02:25:30;47.72;;;30.95;;
19776;SDS011;10047;42.490;26.012;2024-02-21T02:27:56;49.20;;;32.78;;
19776;SDS011;10047;42.490;26.012;2024-02-21T02:30:21;48.53;;;31.90;;
19776;SDS011;10047;42.490;26.012;2024-02-21T02:32:47;48.65;;;31.20;;
19776;SDS011;10047;42.490;26.012;2024-02-21T02:35:12;45.17;;;29.95;;
19776;SDS011;10047;42.490;26.012;2024-02-21T02:37:38;45.97;;;30.92;;
19776;SDS011;10047;42.490;26.012;2024-02-21T02:40:04;44.35;;;30.02;;
19776;SDS011;10047;42.490;26.012;2024-02-21T02:42:31;47.83;;;30.92;;
19776;SDS011;10047;42.490;26.012;2024-02-21T02:44:56;43.67;;;30.92;;
19776;SDS011;10047;42.490;26.012;2024-02-21T02:47:22;42.42;;;29.83;;
19776;SDS011;10047;42.490;26.012;2024-02-21T02:49:48;44.55;;;29.90;;
19776;SDS011;10047;42.490;26.012;2024-02-21T02:52:16;46.22;;;30.40;;
19776;SDS011;10047;42.490;26.012;2024-02-21T02:54:42;45.63;;;30.10;;
19776;SDS011;10047;42.490;26.012;2024-02-21T02:57:07;43.97;;;29.75;;
19776;SDS011;10047;42.490;26.012;2024-02-21T02:59:33;45.38;;;29.25;;
19776;SDS011;10047;42.490;26.012;2024-02-21T03:01:58;41.58;;;29.67;;
19776;SDS011;10047;42.490;26.012;2024-02-21T03:04:24;44.33;;;29.13;;
19776;SDS011;10047;42.490;26.012;2024-02-21T03:06:49;44.28;;;29.30;;
19776;SDS011;10047;42.490;26.012;2024-02-21T03:09:15;45.28;;;29.80;;
19776;SDS011;10047;42.490;26.012;2024-02-21T03:11:42;47.20;;;31.90;;
19776;SDS011;10047;42.490;26.012;2024-02-21T03:14:09;48.05;;;31.55;;
19776;SDS011;10047;42.490;26.012;2024-02-21T03:16:35;50.30;;;30.45;;
19776;SDS011;10047;42.490;26.012;2024-02-21T03:19:00;47.78;;;30.20;;
19776;SDS011;10047;42.490;26.012;2024-02-21T03:21:26;45.50;;;31.02;;
19776;SDS011;10047;42.490;26.012;2024-02-21T03:23:51;45.38;;;31.80;;
19776;SDS011;10047;42.490;26.012;2024-02-21T03:26:16;47.50;;;31.52;;
19776;SDS011;10047;42.490;26.012;2024-02-21T03:28:42;45.80;;;30.35;;
19776;SDS011;10047;42.490;26.012;2024-02-21T03:31:11;48.70;;;30.80;;
19776;SDS011;10047;42.490;26.012;2024-02-21T03:33:38;47.00;;;30.67;;
19776;SDS011;10047;42.490;26.012;2024-02-21T03:36:05;45.60;;;30.70;;
19776;SDS011;10047;42.490;26.012;2024-02-21T03:38:30;48.47;;;30.60;;
19776;SDS011;10047;42.490;26.012;2024-02-21T03:40:56;44.72;;;29.58;;
19776;SDS011;10047;42.490;26.012;2024-02-21T03:43:21;42.85;;;29.73;;
19776;SDS011;10047;42.490;26.012;2024-02-21T03:45:46;46.40;;;30.83;;
19776;SDS011;10047;42.490;26.012;2024-02-21T03:48:12;45.15;;;29.73;;
19776;SDS011;10047;42.490;26.012;2024-02-21T03:50:37;43.97;;;30.23;;
19776;SDS011;10047;42.490;26.012;2024-02-21T03:53:03;43.47;;;29.88;;
19776;SDS011;10047;42.490;26.012;2024-02-21T03:55:28;44.60;;;30.67;;
19776;SDS011;10047;42.490;26.012;2024-02-21T03:57:54;46.22;;;30.73;;
19776;SDS011;10047;42.490;26.012;2024-02-21T04:00:19;48.90;;;30.65;;
19776;SDS011;10047;42.490;26.012;2024-02-21T04:02:44;42.85;;;29.45;;
19776;SDS011;10047;42.490;26.012;2024-02-21T04:05:10;44.05;;;30.65;;
19776;SDS011;10047;42.490;26.012;2024-02-21T04:07:37;48.67;;;31.10;;
19776;SDS011;10047;42.490;26.012;2024-02-21T04:10:03;47.03;;;31.67;;
19776;SDS011;10047;42.490;26.012;2024-02-21T04:12:29;45.50;;;29.25;;
19776;SDS011;10047;42.490;26.012;2024-02-21T04:14:54;45.03;;;31.38;;
19776;SDS011;10047;42.490;26.012;2024-02-21T04:17:19;47.78;;;32.00;;
19776;SDS011;10047;42.490;26.012;2024-02-21T04:19:45;47.28;;;31.60;;
19776;SDS011;10047;42.490;26.012;2024-02-21T04:22:10;45.30;;;30.95;;
19776;SDS011;10047;42.490;26.012;2024-02-21T04:24:35;48.00;;;31.80;;
19776;SDS011;10047;42.490;26.012;2024-02-21T04:27:01;46.72;;;30.67;;
19776;SDS011;10047;42.490;26.012;2024-02-21T04:29:27;45.63;;;30.02;;
19776;SDS011;10047;42.490;26.012;2024-02-21T04:31:53;43.95;;;29.42;;
19776;SDS011;10047;42.490;26.012;2024-02-21T04:34:19;43.60;;;29.35;;
19776;SDS011;10047;42.490;26.012;2024-02-21T04:36:44;44.65;;;29.88;;
19776;SDS011;10047;42.490;26.012;2024-02-21T04:39:10;61.38;;;39.88;;
19776;SDS011;10047;42.490;26.012;2024-02-21T04:41:36;65.25;;;40.75;;
19776;SDS011;10047;42.490;26.012;2024-02-21T04:44:01;55.83;;;36.10;;
19776;SDS011;10047;42.490;26.012;2024-02-21T04:46:29;106.30;;;60.67;;
19776;SDS011;10047;42.490;26.012;2024-02-21T04:48:54;108.68;;;64.20;;
19776;SDS011;10047;42.490;26.012;2024-02-21T04:51:20;83.15;;;51.33;;
19776;SDS011;10047;42.490;26.012;2024-02-21T04:53:46;77.28;;;51.00;;
19776;SDS011;10047;42.490;26.012;2024-02-21T04:56:11;80.03;;;51.85;;
19776;SDS011;10047;42.490;26.012;2024-02-21T04:58:37;80.47;;;54.03;;
19776;SDS011;10047;42.490;26.012;2024-02-21T05:01:04;61.42;;;41.90;;
19776;SDS011;10047;42.490;26.012;2024-02-21T05:03:29;60.88;;;40.28;;
19776;SDS011;10047;42.490;26.012;2024-02-21T05:05:55;53.45;;;38.45;;
19776;SDS011;10047;42.490;26.012;2024-02-21T05:08:20;55.03;;;36.00;;
19776;SDS011;10047;42.490;26.012;2024-02-21T05:10:46;56.50;;;38.20;;
19776;SDS011;10047;42.490;26.012;2024-02-21T05:13:11;53.60;;;35.22;;
19776;SDS011;10047;42.490;26.012;2024-02-21T05:15:36;62.35;;;40.50;;
19776;SDS011;10047;42.490;26.012;2024-02-21T05:18:02;59.83;;;38.15;;
19776;SDS011;10047;42.490;26.012;2024-02-21T05:20:27;54.88;;;36.78;;
19776;SDS011;10047;42.490;26.012;2024-02-21T05:22:53;56.80;;;36.47;;
19776;SDS011;10047;42.490;26.012;2024-02-21T05:25:18;59.72;;;39.08;;
19776;SDS011;10047;42.490;26.012;2024-02-21T05:27:44;57.17;;;38.20;;
19776;SDS011;10047;42.490;26.012;2024-02-21T05:30:11;56.90;;;38.08;;
19776;SDS011;10047;42.490;26.012;2024-02-21T05:32:37;63.92;;;39.30;;
19776;SDS011;10047;42.490;26.012;2024-02-21T05:35:02;56.63;;;38.47;;
19776;SDS011;10047;42.490;26.012;2024-02-21T05:37:28;61.65;;;39.03;;
19776;SDS011;10047;42.490;26.012;2024-02-21T05:39:53;55.80;;;37.65;;
19776;SDS011;10047;42.490;26.012;2024-02-21T05:42:19;56.58;;;38.20;;
19776;SDS011;10047;42.490;26.012;2024-02-21T05:44:44;56.75;;;37.53;;
19776;SDS011;10047;42.490;26.012;2024-02-21T05:47:10;54.40;;;35.42;;
19776;SDS011;10047;42.490;26.012;2024-02-21T05:49:37;50.55;;;32.95;;
19776;SDS011;10047;42.490;26.012;2024-02-21T05:52:02;53.35;;;33.58;;
19776;SDS011;10047;42.490;26.012;2024-02-21T05:54:28;49.47;;;32.40;;
19776;SDS011;10047;42.490;26.012;2024-02-21T05:56:53;48.70;;;31.55;;
19776;SDS011;10047;42.490;26.012;2024-02-21T05:59:19;48.90;;;32.33;;
19776;SDS011;10047;42.490;26.012;2024-02-21T06:01:44;47.58;;;32.58;;
19776;SDS011;10047;42.490;26.012;2024-02-21T06:04:09;52.03;;;33.72;;
19776;SDS011;10047;42.490;26.012;2024-02-21T06:06:35;52.33;;;34.03;;
19776;SDS011;10047;42.490;26.012;2024-02-21T06:09:00;51.40;;;35.97;;
19776;SDS011;10047;42.490;26.012;2024-02-21T06:11:27;61.35;;;43.22;;
19776;SDS011;10047;42.490;26.012;2024-02-21T06:13:53;69.93;;;48.67;;
19776;SDS011;10047;42.490;26.012;2024-02-21T06:16:18;64.07;;;44.00;;
19776;SDS011;10047;42.490;26.012;2024-02-21T06:18:44;68.18;;;46.33;;
19776;SDS011;10047;42.490;26.012;2024-02-21T06:21:09;54.83;;;36.63;;
19776;SDS011;10047;42.490;26.012;2024-02-21T06:23:36;53.83;;;34.58;;
19776;SDS011;10047;42.490;26.012;2024-02-21T06:26:01;56.03;;;34.10;;
19776;SDS011;10047;42.490;26.012;2024-02-21T06:28:27;53.53;;;32.95;;
19776;SDS011;10047;42.490;26.012;2024-02-21T06:30:52;50.60;;;31.95;;
19776;SDS011;10047;42.490;26.012;2024-02-21T06:33:18;48.70;;;32.10;;
19776;SDS011;10047;42.490;26.012;2024-02-21T06:35:47;50.80;;;32.72;;
19776;SDS011;10047;42.490;26.012;2024-02-21T06:38:13;55.33;;;34.78;;
19776;SDS011;10047;42.490;26.012;2024-02-21T06:40:39;62.90;;;42.35;;
19776;SDS011;10047;42.490;26.012;2024-02-21T06:43:05;62.40;;;43.58;;
19776;SDS011;10047;42.490;26.012;2024-02-21T06:45:30;48.47;;;34.33;;
19776;SDS011;10047;42.490;26.012;2024-02-21T06:47:56;52.75;;;38.25;;
19776;SDS011;10047;42.490;26.012;2024-02-21T06:50:21;48.60;;;34.38;;
19776;SDS011;10047;42.490;26.012;2024-02-21T06:52:47;45.97;;;31.75;;
19776;SDS011;10047;42.490;26.012;2024-02-21T06:55:12;45.53;;;31.55;;
19776;SDS011;10047;42.490;26.012;2024-02-21T06:57:38;45.22;;;31.50;;
19776;SDS011;10047;42.490;26.012;2024-02-21T07:00:05;40.38;;;28.63;;
19776;SDS011;10047;42.490;26.012;2024-02-21T07:02:33;38.35;;;28.52;;
19776;SDS011;10047;42.490;26.012;2024-02-21T07:04:59;42.72;;;29.67;;
19776;SDS011;10047;42.490;26.012;2024-02-21T07:07:24;40.53;;;30.00;;
19776;SDS011;10047;42.490;26.012;2024-02-21T07:09:50;41.05;;;29.88;;
19776;SDS011;10047;42.490;26.012;2024-02-21T07:12:15;45.00;;;30.00;;
19776;SDS011;10047;42.490;26.012;2024-02-21T07:14:40;42.88;;;31.73;;
19776;SDS011;10047;42.490;26.012;2024-02-21T07:17:06;50.38;;;34.47;;
19776;SDS011;10047;42.490;26.012;2024-02-21T07:19:31;50.15;;;36.22;;
19776;SDS011;10047;42.490;26.012;2024-02-21T07:21:57;50.35;;;36.00;;
19776;SDS011;10047;42.490;26.012;2024-02-21T07:24:22;48.28;;;33.50;;
19776;SDS011;10047;42.490;26.012;2024-02-21T07:26:47;43.85;;;32.35;;
19776;SDS011;10047;42.490;26.012;2024-02-21T07:29:13;40.25;;;29.38;;
19776;SDS011;10047;42.490;26.012;2024-02-21T07:31:42;39.03;;;28.40;;
19776;SDS011;10047;42.490;26.012;2024-02-21T07:34:08;38.50;;;27.80;;
19776;SDS011;10047;42.490;26.012;2024-02-21T07:36:34;39.25;;;27.23;;
19776;SDS011;10047;42.490;26.012;2024-02-21T07:39:01;34.30;;;26.00;;
19776;SDS011;10047;42.490;26.012;2024-02-21T07:41:28;36.75;;;27.20;;
19776;SDS011;10047;42.490;26.012;2024-02-21T07:43:55;34.78;;;27.35;;
19776;SDS011;10047;42.490;26.012;2024-02-21T07:46:20;33.67;;;24.92;;
19776;SDS011;10047;42.490;26.012;2024-02-21T07:48:46;35.33;;;26.98;;
19776;SDS011;10047;42.490;26.012;2024-02-21T07:51:12;33.60;;;25.45;;
19776;SDS011;10047;42.490;26.012;2024-02-21T07:53:40;35.05;;;26.08;;
19776;SDS011;10047;42.490;26.012;2024-02-21T07:56:10;35.35;;;24.52;;
19776;SDS011;10047;42.490;26.012;2024-02-21T07:58:36;30.30;;;23.25;;
19776;SDS011;10047;42.490;26.012;2024-02-21T08:01:01;36.72;;;25.45;;
19776;SDS011;10047;42.490;26.012;2024-02-21T08:03:26;36.15;;;26.13;;
19776;SDS011;10047;42.490;26.012;2024-02-21T08:05:52;32.60;;;23.85;;
19776;SDS011;10047;42.490;26.012;2024-02-21T08:08:17;34.28;;;25.27;;
19776;SDS011;10047;42.490;26.012;2024-02-21T08:10:45;33.17;;;24.70;;
19776;SDS011;10047;42.490;26.012;2024-02-21T08:13:10;34.97;;;25.25;;
19776;SDS011;10047;42.490;26.012;2024-02-21T08:15:36;36.30;;;25.30;;
19776;SDS011;10047;42.490;26.012;2024-02-21T08:18:04;37.47;;;27.88;;
19776;SDS011;10047;42.490;26.012;2024-02-21T08:20:29;48.92;;;32.38;;
19776;SDS011;10047;42.490;26.012;2024-02-21T08:22:55;40.20;;;29.40;;
19776;SDS011;10047;42.490;26.012;2024-02-21T08:25:20;36.72;;;26.52;;
19776;SDS011;10047;42.490;26.012;2024-02-21T08:27:45;34.65;;;25.98;;
19776;SDS011;10047;42.490;26.012;2024-02-21T08:30:11;37.03;;;27.88;;
19776;SDS011;10047;42.490;26.012;2024-02-21T08:32:37;40.35;;;26.27;;
19776;SDS011;10047;42.490;26.012;2024-02-21T08:35:03;37.63;;;27.45;;
19776;SDS011;10047;42.490;26.012;2024-02-21T08:37:30;36.85;;;27.38;;
19776;SDS011;10047;42.490;26.012;2024-02-21T08:39:55;38.42;;;26.88;;
19776;SDS011;10047;42.490;26.012;2024-02-21T08:42:21;35.38;;;25.33;;
19776;SDS011;10047;42.490;26.012;2024-02-21T08:44:46;43.85;;;35.22;;
19776;SDS011;10047;42.490;26.012;2024-02-21T08:47:12;48.50;;;38.13;;
19776;SDS011;10047;42.490;26.012;2024-02-21T08:49:37;41.90;;;32.80;;
19776;SDS011;10047;42.490;26.012;2024-02-21T08:52:03;36.00;;;27.83;;
19776;SDS011;10047;42.490;26.012;2024-02-21T08:54:30;32.00;;;25.58;;
19776;SDS011;10047;42.490;26.012;2024-02-21T08:56:57;33.78;;;25.65;;
19776;SDS011;10047;42.490;26.012;2024-02-21T08:59:22;34.33;;;25.25;;
19776;SDS011;10047;42.490;26.012;2024-02-21T09:01:48;31.67;;;24.10;;
19776;SDS011;10047;42.490;26.012;2024-02-21T09:04:13;32.47;;;23.83;;
19776;SDS011;10047;42.490;26.012;2024-02-21T09:06:39;28.58;;;22.88;;
19776;SDS011;10047;42.490;26.012;2024-02-21T09:09:07;29.75;;;23.48;;
19776;SDS011;10047;42.490;26.012;2024-02-21T09:11:34;32.63;;;23.75;;
19776;SDS011;10047;42.490;26.012;2024-02-21T09:13:59;33.70;;;25.25;;
19776;SDS011;10047;42.490;26.012;2024-02-21T09:16:25;38.15;;;29.02;;
19776;SDS011;10047;42.490;26.012;2024-02-21T09:18:50;34.92;;;27.75;;
19776;SDS011;10047;42.490;26.012;2024-02-21T09:21:17;31.25;;;23.95;;
19776;SDS011;10047;42.490;26.012;2024-02-21T09:23:42;28.42;;;23.15;;
19776;SDS011;10047;42.490;26.012;2024-02-21T09:26:07;30.95;;;24.52;;
19776;SDS011;10047;42.490;26.012;2024-02-21T09:28:35;27.23;;;21.15;;
19776;SDS011;10047;42.490;26.012;2024-02-21T09:31:00;28.05;;;22.52;;
19776;SDS011;10047;42.490;26.012;2024-02-21T09:33:27;26.30;;;21.67;;
19776;SDS011;10047;42.490;26.012;2024-02-21T09:35:52;25.30;;;19.95;;
19776;SDS011;10047;42.490;26.012;2024-02-21T09:38:18;23.88;;;19.45;;
19776;SDS011;10047;42.490;26.012;2024-02-21T09:40:44;24.38;;;19.50;;
19776;SDS011;10047;42.490;26.012;2024-02-21T09:43:10;25.88;;;19.90;;
19776;SDS011;10047;42.490;26.012;2024-02-21T09:45:35;26.25;;;21.42;;
19776;SDS011;10047;42.490;26.012;2024-02-21T09:50:41;24.88;;;19.73;;
19776;SDS011;10047;42.490;26.012;2024-02-21T09:53:08;28.85;;;21.42;;
19776;SDS011;10047;42.490;26.012;2024-02-21T09:55:37;28.55;;;22.77;;
19776;SDS011;10047;42.490;26.012;2024-02-21T09:58:05;34.80;;;28.48;;
19776;SDS011;10047;42.490;26.012;2024-02-21T10:00:32;34.88;;;28.73;;
19776;SDS011;10047;42.490;26.012;2024-02-21T10:02:58;33.35;;;26.85;;
19776;SDS011;10047;42.490;26.012;2024-02-21T10:05:24;31.98;;;24.63;;
19776;SDS011;10047;42.490;26.012;2024-02-21T10:07:50;31.13;;;23.98;;
19776;SDS011;10047;42.490;26.012;2024-02-21T10:10:16;32.42;;;25.30;;
19776;SDS011;10047;42.490;26.012;2024-02-21T10:12:51;29.30;;;24.10;;
19776;SDS011;10047;42.490;26.012;2024-02-21T10:15:22;33.22;;;26.90;;
19776;SDS011;10047;42.490;26.012;2024-02-21T10:17:59;30.08;;;24.33;;
19776;SDS011;10047;42.490;26.012;2024-02-21T10:20:26;30.42;;;24.48;;
19776;SDS011;10047;42.490;26.012;2024-02-21T10:23:04;28.48;;;24.42;;
19776;SDS011;10047;42.490;26.012;2024-02-21T10:28:00;26.30;;;20.25;;
19776;SDS011;10047;42.490;26.012;2024-02-21T10:30:26;24.30;;;19.35;;
19776;SDS011;10047;42.490;26.012;2024-02-21T10:32:55;25.08;;;19.63;;
19776;SDS011;10047;42.490;26.012;2024-02-21T10:35:30;24.83;;;19.63;;
19776;SDS011;10047;42.490;26.012;2024-02-21T10:37:57;25.45;;;20.58;;
19776;SDS011;10047;42.490;26.012;2024-02-21T10:40:23;21.98;;;17.10;;
19776;SDS011;10047;42.490;26.012;2024-02-21T10:42:51;23.92;;;19.08;;
19776;SDS011;10047;42.490;26.012;2024-02-21T10:45:22;21.83;;;17.80;;
19776;SDS011;10047;42.490;26.012;2024-02-21T10:47:55;22.73;;;17.25;;
19776;SDS011;10047;42.490;26.012;2024-02-21T10:50:22;21.15;;;17.58;;
19776;SDS011;10047;42.490;26.012;2024-02-21T10:53:00;19.42;;;16.90;;
19776;SDS011;10047;42.490;26.012;2024-02-21T10:55:38;19.75;;;16.85;;
19776;SDS011;10047;42.490;26.012;2024-02-21T10:58:11;20.27;;;17.17;;
19776;SDS011;10047;42.490;26.012;2024-02-21T11:00:38;18.77;;;15.52;;
19776;SDS011;10047;42.490;26.012;2024-02-21T11:03:04;22.17;;;17.45;;
19776;SDS011;10047;42.490;26.012;2024-02-21T11:05:30;19.00;;;16.92;;
19776;SDS011;10047;42.490;26.012;2024-02-21T11:07:57;19.10;;;16.73;;
19776;SDS011;10047;42.490;26.012;2024-02-21T11:10:23;22.48;;;18.45;;
19776;SDS011;10047;42.490;26.012;2024-02-21T11:12:53;21.08;;;17.13;;
19776;SDS011;10047;42.490;26.012;2024-02-21T11:15:29;20.05;;;17.48;;
19776;SDS011;10047;42.490;26.012;2024-02-21T11:17:56;19.35;;;17.02;;
19776;SDS011;10047;42.490;26.012;2024-02-21T11:20:31;19.95;;;16.70;;
19776;SDS011;10047;42.490;26.012;2024-02-21T11:23:00;18.35;;;15.90;;
19776;SDS011;10047;42.490;26.012;2024-02-21T11:25:26;20.77;;;17.23;;
19776;SDS011;10047;42.490;26.012;2024-02-21T11:30:35;23.50;;;17.95;;
19776;SDS011;10047;42.490;26.012;2024-02-21T11:33:06;22.88;;;19.02;;
19776;SDS011;10047;42.490;26.012;2024-02-21T11:35:35;26.80;;;20.02;;
19776;SDS011;10047;42.490;26.012;2024-02-21T11:38:11;18.85;;;16.00;;
19776;SDS011;10047;42.490;26.012;2024-02-21T11:40:44;18.77;;;15.68;;
19776;SDS011;10047;42.490;26.012;2024-02-21T11:43:10;22.40;;;17.85;;
19776;SDS011;10047;42.490;26.012;2024-02-21T11:45:36;19.80;;;17.20;;
19776;SDS011;10047;42.490;26.012;2024-02-21T11:48:03;19.25;;;15.55;;
19776;SDS011;10047;42.490;26.012;2024-02-21T11:50:30;19.38;;;15.80;;
19776;SDS011;10047;42.490;26.012;2024-02-21T11:52:56;16.50;;;14.50;;
19776;SDS011;10047;42.490;26.012;2024-02-21T11:55:22;18.88;;;15.52;;
19776;SDS011;10047;42.490;26.012;2024-02-21T11:57:48;17.80;;;15.88;;
19776;SDS011;10047;42.490;26.012;2024-02-21T12:00:14;16.40;;;14.43;;
19776;SDS011;10047;42.490;26.012;2024-02-21T12:02:41;18.58;;;15.65;;
19776;SDS011;10047;42.490;26.012;2024-02-21T12:05:07;17.13;;;14.88;;
19776;SDS011;10047;42.490;26.012;2024-02-21T12:07:39;21.00;;;16.25;;
19776;SDS011;10047;42.490;26.012;2024-02-21T12:10:09;20.38;;;17.20;;
19776;SDS011;10047;42.490;26.012;2024-02-21T12:12:35;21.85;;;17.80;;
19776;SDS011;10047;42.490;26.012;2024-02-21T12:15:03;17.20;;;14.88;;
19776;SDS011;10047;42.490;26.012;2024-02-21T12:17:30;18.63;;;15.02;;
19776;SDS011;10047;42.490;26.012;2024-02-21T12:19:56;15.88;;;13.55;;
19776;SDS011;10047;42.490;26.012;2024-02-21T12:22:22;17.23;;;14.05;;
19776;SDS011;10047;42.490;26.012;2024-02-21T12:24:48;18.05;;;14.68;;
19776;SDS011;10047;42.490;26.012;2024-02-21T12:27:13;16.55;;;13.48;;
19776;SDS011;10047;42.490;26.012;2024-02-21T12:29:39;19.60;;;15.82;;
19776;SDS011;10047;42.490;26.012;2024-02-21T12:32:04;17.23;;;13.68;;
19776;SDS011;10047;42.490;26.012;2024-02-21T12:34:30;21.23;;;15.50;;
19776;SDS011;10047;42.490;26.012;2024-02-21T12:36:58;17.85;;;14.95;;
19776;SDS011;10047;42.490;26.012;2024-02-21T12:39:24;15.13;;;11.93;;
19776;SDS011;10047;42.490;26.012;2024-02-21T12:41:52;14.98;;;12.55;;
19776;SDS011;10047;42.490;26.012;2024-02-21T12:44:19;16.48;;;11.63;;
19776;SDS011;10047;42.490;26.012;2024-02-21T12:46:44;14.00;;;9.75;;
19776;SDS011;10047;42.490;26.012;2024-02-21T12:49:10;14.10;;;11.50;;
19776;SDS011;10047;42.490;26.012;2024-02-21T12:51:35;12.18;;;10.60;;
19776;SDS011;10047;42.490;26.012;2024-02-21T12:54:03;11.07;;;9.65;;
19776;SDS011;10047;42.490;26.012;2024-02-21T12:56:28;16.77;;;13.23;;
19776;SDS011;10047;42.490;26.012;2024-02-21T12:58:55;16.23;;;14.23;;
19776;SDS011;10047;42.490;26.012;2024-02-21T13:01:20;15.88;;;12.77;;
19776;SDS011;10047;42.490;26.012;2024-02-21T13:03:46;24.98;;;18.70;;
19776;SDS011;10047;42.490;26.012;2024-02-21T13:06:12;37.55;;;27.75;;
19776;SDS011;10047;42.490;26.012;2024-02-21T13:08:37;31.42;;;25.17;;
19776;SDS011;10047;42.490;26.012;2024-02-21T13:11:03;39.08;;;28.20;;
19776;SDS011;10047;42.490;26.012;2024-02-21T13:13:29;26.13;;;20.15;;
19776;SDS011;10047;42.490;26.012;2024-02-21T13:15:54;18.10;;;14.55;;
19776;SDS011;10047;42.490;26.012;2024-02-21T13:18:20;15.98;;;12.88;;
19776;SDS011;10047;42.490;26.012;2024-02-21T13:20:45;16.02;;;12.90;;
19776;SDS011;10047;42.490;26.012;2024-02-21T13:23:11;17.55;;;14.43;;
19776;SDS011;10047;42.490;26.012;2024-02-21T13:25:36;19.13;;;16.25;;
19776;SDS011;10047;42.490;26.012;2024-02-21T13:28:01;24.73;;;18.35;;
19776;SDS011;10047;42.490;26.012;2024-02-21T13:30:28;22.48;;;18.35;;
19776;SDS011;10047;42.490;26.012;2024-02-21T13:32:54;21.13;;;17.40;;
19776;SDS011;10047;42.490;26.012;2024-02-21T13:35:22;20.48;;;17.88;;
19776;SDS011;10047;42.490;26.012;2024-02-21T13:37:47;20.35;;;16.10;;
19776;SDS011;10047;42.490;26.012;2024-02-21T13:40:13;19.60;;;15.75;;
19776;SDS011;10047;42.490;26.012;2024-02-21T13:42:39;20.70;;;16.65;;
19776;SDS011;10047;42.490;26.012;2024-02-21T13:45:05;20.73;;;15.30;;
19776;SDS011;10047;42.490;26.012;2024-02-21T13:47:32;20.95;;;15.68;;
19776;SDS011;10047;42.490;26.012;2024-02-21T13:50:04;17.73;;;14.25;;
19776;SDS011;10047;42.490;26.012;2024-02-21T13:52:30;19.15;;;15.95;;
19776;SDS011;10047;42.490;26.012;2024-02-21T13:54:56;19.42;;;14.57;;
19776;SDS011;10047;42.490;26.012;2024-02-21T13:57:22;17.52;;;13.63;;
19776;SDS011;10047;42.490;26.012;2024-02-21T13:59:47;16.90;;;14.43;;
19776;SDS011;10047;42.490;26.012;2024-02-21T14:02:13;20.10;;;16.38;;
19776;SDS011;10047;42.490;26.012;2024-02-21T14:04:38;22.60;;;18.27;;
19776;SDS011;10047;42.490;26.012;2024-02-21T14:07:04;19.77;;;15.90;;
19776;SDS011;10047;42.490;26.012;2024-02-21T14:09:29;17.05;;;13.30;;
19776;SDS011;10047;42.490;26.012;2024-02-21T14:11:55;19.20;;;14.20;;